createdAt,value
2018-09-03T00:00:44.184Z,60315.57
2018-09-03T00:03:12.389Z,60334.88
2018-09-03T00:05:40.567Z,60311.51
2018-09-03T00:08:08.738Z,60302.37
2018-09-03T00:10:36.943Z,60343.01
2018-09-03T00:13:05.271Z,60330.82
2018-09-03T00:15:33.439Z,60311.51
2018-09-03T00:18:01.631Z,60326.75
2018-09-03T00:20:29.819Z,60345.04
2018-09-03T00:22:57.992Z,60340.98
2018-09-03T00:25:26.164Z,60332.85
2018-09-03T00:27:54.379Z,60312.53
2018-09-03T00:30:22.574Z,60331.84
2018-09-03T00:32:55.927Z,60334.88
2018-09-03T00:35:29.436Z,60340.98
2018-09-03T00:38:02.899Z,60308.46
2018-09-03T00:40:36.392Z,60344.03
2018-09-03T00:43:09.780Z,60336.91
2018-09-03T00:45:43.368Z,60340.98
2018-09-03T00:48:11.544Z,60339.96
2018-09-03T00:50:39.715Z,60351.14
2018-09-03T00:53:07.915Z,60332.85
2018-09-03T00:55:36.087Z,60353.18
2018-09-03T00:58:04.311Z,60345.04
2018-09-03T01:00:32.689Z,60348.09
2018-09-03T01:03:00.873Z,60358.25
2018-09-03T01:05:29.056Z,60344.03
2018-09-03T01:07:57.247Z,60356.22
2018-09-03T01:10:25.438Z,60384.68
2018-09-03T01:12:53.599Z,60353.18
2018-09-03T01:15:21.792Z,60337.93
2018-09-03T01:17:49.963Z,60354.19
2018-09-03T01:20:18.131Z,60360.29
2018-09-03T01:22:46.337Z,60368.42
2018-09-03T01:25:14.504Z,60336.91
2018-09-03T01:27:42.731Z,60337.93
2018-09-03T01:30:10.930Z,60346.06
2018-09-03T01:32:39.107Z,60354.19
2018-09-03T01:35:07.320Z,60360.29
2018-09-03T01:37:35.489Z,60340.98
2018-09-03T01:40:03.667Z,60379.59
2018-09-03T01:42:31.859Z,60370.45
2018-09-03T01:45:00.077Z,60348.09
2018-09-03T01:47:28.281Z,60322.69
2018-09-03T01:49:56.472Z,60357.24
2018-09-03T01:52:24.661Z,60350.12
2018-09-03T01:54:52.852Z,60359.27
2018-09-03T01:57:21.046Z,60362.32
2018-09-03T01:59:49.228Z,60362.32
2018-09-03T02:02:17.433Z,60354.19
2018-09-03T02:04:45.633Z,60358.25
2018-09-03T02:07:13.837Z,60344.03
2018-09-03T02:09:42.021Z,60347.08
2018-09-03T02:12:12.221Z,60371.46
2018-09-03T02:14:40.928Z,60361.30
2018-09-03T02:17:09.928Z,60344.03
2018-09-03T02:19:38.144Z,60347.08
2018-09-03T02:22:06.567Z,60352.16
2018-09-03T02:24:34.753Z,60339.96
2018-09-03T02:27:02.963Z,60350.12
2018-09-03T02:29:31.213Z,60340.98
2018-09-03T02:31:59.453Z,60366.39
2018-09-03T02:34:27.624Z,60351.14
2018-09-03T02:36:55.809Z,60353.18
2018-09-03T02:39:24.010Z,60361.30
2018-09-03T02:41:52.187Z,60367.40
2018-09-03T02:44:20.389Z,60363.34
2018-09-03T02:46:48.574Z,60338.95
2018-09-03T02:49:16.762Z,60359.27
2018-09-03T02:51:44.969Z,60367.40
2018-09-03T02:54:13.163Z,60353.18
2018-09-03T02:56:41.331Z,60361.30
2018-09-03T02:59:09.503Z,60362.32
2018-09-03T03:01:37.678Z,60339.96
2018-09-03T03:04:05.935Z,60349.11
2018-09-03T03:06:34.122Z,60345.04
2018-09-03T03:09:02.307Z,60363.34
2018-09-03T03:11:30.492Z,60346.06
2018-09-03T03:13:58.691Z,60344.03
2018-09-03T03:16:26.869Z,60337.93
2018-09-03T03:18:55.058Z,60353.18
2018-09-03T03:21:23.243Z,60370.45
2018-09-03T03:23:51.425Z,60356.22
2018-09-03T03:26:19.595Z,60355.21
2018-09-03T03:28:47.771Z,60347.08
2018-09-03T03:31:15.973Z,60362.32
2018-09-03T03:33:44.166Z,60359.27
2018-09-03T03:36:12.356Z,60357.24
2018-09-03T03:38:40.555Z,60347.08
2018-09-03T03:41:08.723Z,60357.24
2018-09-03T03:43:36.911Z,60348.09
2018-09-03T03:46:05.089Z,60353.18
2018-09-03T03:48:33.283Z,60365.37
2018-09-03T03:51:01.456Z,60339.96
2018-09-03T03:53:29.632Z,60335.90
2018-09-03T03:55:57.807Z,60344.03
2018-09-03T03:58:26.123Z,60351.14
2018-09-03T04:00:54.299Z,60343.01
2018-09-03T04:03:22.495Z,60355.21
2018-09-03T04:05:50.677Z,60346.06
2018-09-03T04:08:18.835Z,60351.14
2018-09-03T04:10:46.998Z,60357.24
2018-09-03T04:13:15.171Z,60351.14
2018-09-03T04:15:43.331Z,60352.16
2018-09-03T04:18:11.520Z,60357.24
2018-09-03T04:20:39.711Z,60345.04
2018-09-03T04:23:07.997Z,60360.29
2018-09-03T04:25:36.076Z,60347.08
2018-09-03T04:28:04.280Z,60370.45
2018-09-03T04:30:32.473Z,60361.30
2018-09-03T04:33:00.704Z,60352.16
2018-09-03T04:35:28.904Z,60353.18
2018-09-03T04:37:57.091Z,60357.24
2018-09-03T04:40:25.268Z,60366.39
2018-09-03T04:42:53.450Z,60366.39
2018-09-03T04:45:21.673Z,60353.18
2018-09-03T04:47:49.871Z,60359.27
2018-09-03T04:50:18.084Z,60363.34
2018-09-03T04:52:46.273Z,60363.34
2018-09-03T04:55:14.628Z,60373.50
2018-09-03T04:57:42.795Z,60342.00
2018-09-03T05:00:11.014Z,60365.37
2018-09-03T05:02:39.215Z,60359.27
2018-09-03T05:05:07.399Z,60362.32
2018-09-03T05:07:35.611Z,60362.32
2018-09-03T05:10:03.882Z,60369.43
2018-09-03T05:12:32.066Z,60371.46
2018-09-03T05:15:00.268Z,60353.18
2018-09-03T05:17:28.468Z,60360.29
2018-09-03T05:19:56.642Z,60358.25
2018-09-03T05:22:24.824Z,60361.30
2018-09-03T05:24:53.052Z,60384.68
2018-09-03T05:27:21.220Z,60381.63
2018-09-03T05:29:49.414Z,60351.14
2018-09-03T05:32:17.582Z,60362.32
2018-09-03T05:34:45.848Z,60343.01
2018-09-03T05:37:14.032Z,60371.46
2018-09-03T05:39:42.212Z,60376.55
2018-09-03T05:42:10.392Z,60350.12
2018-09-03T05:44:38.569Z,60351.14
2018-09-03T05:47:07.010Z,60368.42
2018-09-03T05:49:35.447Z,60365.37
2018-09-03T05:52:03.652Z,60367.40
2018-09-03T05:54:31.890Z,60385.69
2018-09-03T05:57:00.171Z,60350.12
2018-09-03T05:59:28.356Z,60386.71
2018-09-03T06:01:56.944Z,60349.11
2018-09-03T06:04:25.134Z,60355.21
2018-09-03T06:06:53.295Z,60380.61
2018-09-03T06:09:22.294Z,60360.29
2018-09-03T06:11:50.480Z,60348.09
2018-09-03T06:14:18.742Z,60367.40
2018-09-03T06:16:46.985Z,60376.55
2018-09-03T06:19:15.237Z,60364.35
2018-09-03T06:21:43.416Z,60370.45
2018-09-03T06:24:11.589Z,60371.46
2018-09-03T06:26:39.814Z,60336.91
2018-09-03T06:29:07.944Z,60331.84
2018-09-03T06:31:36.154Z,60355.21
2018-09-03T06:34:04.776Z,60344.03
2018-09-03T06:36:32.968Z,60350.12
2018-09-03T06:39:01.207Z,60348.09
2018-09-03T06:41:29.364Z,60358.25
2018-09-03T06:43:57.569Z,60336.91
2018-09-03T06:46:25.740Z,60335.90
2018-09-03T06:48:53.957Z,60353.18
2018-09-03T06:51:22.128Z,60359.27
2018-09-03T06:53:50.355Z,60348.09
2018-09-03T06:56:18.531Z,60362.32
2018-09-03T06:58:46.739Z,60337.93
2018-09-03T07:01:14.978Z,60338.95
2018-09-03T07:03:43.844Z,60349.11
2018-09-03T07:06:12.219Z,60359.27
2018-09-03T07:08:40.801Z,60344.03
2018-09-03T07:11:09.896Z,60372.48
2018-09-03T07:13:38.066Z,60335.90
2018-09-03T07:16:06.262Z,60361.30
2018-09-03T07:18:34.480Z,60375.53
2018-09-03T07:21:02.620Z,60329.80
2018-09-03T07:23:30.795Z,60339.96
2018-09-03T07:25:58.968Z,60342.00
2018-09-03T07:28:27.164Z,60363.34
2018-09-03T07:30:55.599Z,60360.29
2018-09-03T07:33:23.775Z,60356.22
2018-09-03T07:35:51.982Z,60344.03
2018-09-03T07:38:20.171Z,60332.85
2018-09-03T07:40:48.359Z,60328.79
2018-09-03T07:43:16.573Z,60336.91
2018-09-03T07:45:44.784Z,60342.00
2018-09-03T07:48:13.003Z,60346.06
2018-09-03T07:50:41.183Z,60318.62
2018-09-03T07:53:09.351Z,60365.37
2018-09-03T07:55:37.541Z,60355.21
2018-09-03T07:58:06.277Z,60342.00
2018-09-03T08:00:34.453Z,60348.09
2018-09-03T08:03:02.627Z,60333.87
2018-09-03T08:05:30.829Z,60345.04
2018-09-03T08:07:59.035Z,60332.85
2018-09-03T08:10:27.223Z,60350.12
2018-09-03T08:12:55.461Z,60323.71
2018-09-03T08:15:23.567Z,60309.48
2018-09-03T08:17:51.759Z,60354.19
2018-09-03T08:20:19.940Z,60353.18
2018-09-03T08:22:48.146Z,60353.18
2018-09-03T08:25:16.323Z,60337.93
2018-09-03T08:27:44.491Z,60350.12
2018-09-03T08:30:12.790Z,60316.59
2018-09-03T08:32:40.909Z,60334.88
2018-09-03T08:35:09.265Z,60348.09
2018-09-03T08:37:37.440Z,60329.80
2018-09-03T08:40:06.007Z,60328.79
2018-09-03T08:42:34.133Z,60350.12
2018-09-03T08:45:02.329Z,60344.03
2018-09-03T08:47:30.500Z,60343.01
2018-09-03T08:49:58.689Z,60342.00
2018-09-03T08:52:26.871Z,60340.98
2018-09-03T08:54:55.063Z,60349.11
2018-09-03T08:57:23.484Z,60335.90
2018-09-03T08:59:51.659Z,60346.06
2018-09-03T09:02:19.838Z,60336.91
2018-09-03T09:04:48.022Z,60343.01
2018-09-03T09:07:16.235Z,60326.75
2018-09-03T09:09:44.423Z,60343.01
2018-09-03T09:12:12.661Z,60354.19
2018-09-03T09:14:40.864Z,60335.90
2018-09-03T09:17:09.038Z,60334.88
2018-09-03T09:19:37.226Z,60330.82
2018-09-03T09:22:05.403Z,60357.24
2018-09-03T09:24:33.644Z,60331.84
2018-09-03T09:27:01.801Z,60359.27
2018-09-03T09:29:29.984Z,60349.11
2018-09-03T09:31:58.173Z,60331.84
2018-09-03T09:34:26.359Z,60334.88
2018-09-03T09:36:54.621Z,60330.82
2018-09-03T09:39:22.723Z,60350.12
2018-09-03T09:41:50.899Z,60325.74
2018-09-03T09:44:19.071Z,60335.90
2018-09-03T09:46:47.274Z,60340.98
2018-09-03T09:49:15.568Z,60337.93
2018-09-03T09:51:43.738Z,60330.82
2018-09-03T09:54:11.930Z,60330.82
2018-09-03T09:56:40.128Z,60304.40
2018-09-03T09:59:08.319Z,60315.57
2018-09-03T10:01:37.947Z,60328.79
2018-09-03T10:04:06.454Z,60336.91
2018-09-03T10:06:34.626Z,60337.93
2018-09-03T10:09:02.941Z,60330.82
2018-09-03T10:11:31.116Z,60335.90
2018-09-03T10:13:59.495Z,60312.53
2018-09-03T10:16:27.684Z,60366.39
2018-09-03T10:18:55.896Z,60343.01
2018-09-03T10:21:24.086Z,60322.69
2018-09-03T10:23:52.289Z,60314.56
2018-09-03T10:26:20.560Z,60326.75
2018-09-03T10:28:48.685Z,60325.74
2018-09-03T10:31:17.456Z,60329.80
2018-09-03T10:33:45.796Z,60338.95
2018-09-03T10:36:14.030Z,60315.57
2018-09-03T10:38:42.229Z,60351.14
2018-09-03T10:41:10.420Z,60331.84
2018-09-03T10:43:38.603Z,60331.84
2018-09-03T10:46:06.855Z,60302.37
2018-09-03T10:48:35.047Z,60331.84
2018-09-03T10:51:03.236Z,60305.41
2018-09-03T10:53:31.467Z,60319.64
2018-09-03T10:55:59.652Z,60298.30
2018-09-03T10:58:27.787Z,60303.38
2018-09-03T11:00:56.012Z,60290.17
2018-09-03T11:03:24.345Z,60319.64
2018-09-03T11:05:52.535Z,60323.71
2018-09-03T11:08:20.736Z,60314.56
2018-09-03T11:10:48.929Z,60282.04
2018-09-03T11:13:17.110Z,60297.29
2018-09-03T11:15:45.407Z,60307.45
2018-09-03T11:18:13.595Z,60303.38
2018-09-03T11:20:41.800Z,60305.41
2018-09-03T11:23:09.986Z,60293.22
2018-09-03T11:25:38.172Z,60286.11
2018-09-03T11:28:06.383Z,60299.32
2018-09-03T11:30:34.583Z,60309.48
2018-09-03T11:33:03.622Z,60304.40
2018-09-03T11:35:31.839Z,60292.21
2018-09-03T11:38:00.254Z,60309.48
2018-09-03T11:40:28.418Z,60271.88
2018-09-03T11:42:56.623Z,60281.03
2018-09-03T11:45:24.882Z,60276.96
2018-09-03T11:47:53.065Z,60275.95
2018-09-03T11:50:21.672Z,60275.95
2018-09-03T11:52:49.876Z,60260.71
2018-09-03T11:55:18.042Z,60264.77
2018-09-03T11:57:46.258Z,60269.85
2018-09-03T12:00:19.716Z,60280.01
2018-09-03T12:02:47.933Z,60270.87
2018-09-03T12:05:17.366Z,60283.06
2018-09-03T12:07:45.704Z,60292.21
2018-09-03T12:10:13.894Z,60275.95
2018-09-03T12:12:42.265Z,60298.30
2018-09-03T12:15:48.919Z,60275.95
2018-09-03T12:18:17.195Z,60280.01
2018-09-03T12:20:45.407Z,60269.85
2018-09-03T12:23:14.571Z,60269.85
2018-09-03T12:25:42.795Z,60250.54
2018-09-03T12:28:10.967Z,60282.04
2018-09-03T12:30:39.175Z,60248.51
2018-09-03T12:33:07.379Z,60267.82
2018-09-03T12:35:35.587Z,60251.56
2018-09-03T12:38:03.962Z,60260.71
2018-09-03T12:40:32.205Z,60262.74
2018-09-03T12:43:00.445Z,60266.80
2018-09-03T12:45:33.939Z,60268.83
2018-09-03T12:48:02.116Z,60266.80
2018-09-03T12:50:30.299Z,60253.59
2018-09-03T12:52:58.478Z,60266.80
2018-09-03T12:55:26.679Z,60268.83
2018-09-03T12:57:54.871Z,60255.63
2018-09-03T13:00:23.064Z,60280.01
2018-09-03T13:02:51.527Z,60264.77
2018-09-03T13:05:20.358Z,60275.95
2018-09-03T13:07:48.968Z,60260.71
2018-09-03T13:10:17.153Z,60273.91
2018-09-03T13:12:45.431Z,60268.83
2018-09-03T13:15:14.738Z,60274.93
2018-09-03T13:17:43.558Z,60282.04
2018-09-03T13:20:11.935Z,60241.40
2018-09-03T13:22:40.134Z,60257.66
2018-09-03T13:25:08.339Z,60268.83
2018-09-03T13:27:36.530Z,60237.33
2018-09-03T13:30:05.389Z,60249.53
2018-09-03T13:32:33.760Z,60275.95
2018-09-03T13:35:02.971Z,60261.72
2018-09-03T13:37:31.826Z,60248.51
2018-09-03T13:40:00.183Z,60263.75
2018-09-03T13:42:29.464Z,60264.77
2018-09-03T13:44:58.055Z,60272.90
2018-09-03T13:47:26.643Z,60258.67
2018-09-03T13:49:54.916Z,60265.79
2018-09-03T13:52:23.147Z,60259.69
2018-09-03T13:54:51.357Z,60260.71
2018-09-03T13:57:19.639Z,60262.74
2018-09-03T13:59:47.844Z,60276.96
2018-09-03T14:02:16.051Z,60281.03
2018-09-03T14:04:44.358Z,60262.74
2018-09-03T14:07:12.566Z,60275.95
2018-09-03T14:09:40.834Z,60274.93
2018-09-03T14:12:09.532Z,60285.09
2018-09-03T14:14:37.792Z,60275.95
2018-09-03T14:17:06.347Z,60285.09
2018-09-03T14:19:34.583Z,60274.93
2018-09-03T14:22:02.823Z,60293.22
2018-09-03T14:24:31.021Z,60286.11
2018-09-03T14:26:59.242Z,60276.96
2018-09-03T14:29:27.434Z,60293.22
2018-09-03T14:31:55.624Z,60264.77
2018-09-03T14:34:23.803Z,60275.95
2018-09-03T14:36:52.050Z,60287.12
2018-09-03T14:39:20.195Z,60311.51
2018-09-03T14:41:48.401Z,60277.98
2018-09-03T14:44:16.574Z,60304.40
2018-09-03T14:46:44.755Z,60301.35
2018-09-03T14:49:12.944Z,60287.12
2018-09-03T14:51:41.141Z,60278.99
2018-09-03T14:54:09.319Z,60292.21
2018-09-03T14:56:37.494Z,60307.45
2018-09-03T14:59:05.712Z,60295.25
2018-09-03T15:01:34.136Z,60303.38
2018-09-03T15:04:02.438Z,60292.21
2018-09-03T15:06:30.547Z,60289.16
2018-09-03T15:08:58.750Z,60311.51
2018-09-03T15:11:27.039Z,60308.46
2018-09-03T15:13:58.892Z,60285.09
2018-09-03T15:16:29.622Z,60315.57
2018-09-03T15:18:58.067Z,60289.16
2018-09-03T15:21:26.296Z,60302.37
2018-09-03T15:23:54.480Z,60296.27
2018-09-03T15:26:22.805Z,60306.43
2018-09-03T15:28:51.054Z,60290.17
2018-09-03T15:31:19.513Z,60304.40
2018-09-03T15:33:48.384Z,60306.43
2018-09-03T15:36:16.695Z,60304.40
2018-09-03T15:38:44.882Z,60307.45
2018-09-03T15:41:13.171Z,60298.30
2018-09-03T15:43:41.389Z,60307.45
2018-09-03T15:46:10.090Z,60281.03
2018-09-03T15:48:38.391Z,60316.59
2018-09-03T15:51:06.687Z,60295.25
2018-09-03T15:53:36.151Z,60301.35
2018-09-03T15:56:04.731Z,60308.46
2018-09-03T15:58:32.927Z,60303.38
2018-09-03T16:01:01.335Z,60270.87
2018-09-03T16:03:29.831Z,60290.17
2018-09-03T16:05:58.427Z,60319.64
2018-09-03T16:08:26.634Z,60292.21
2018-09-03T16:10:55.686Z,60312.53
2018-09-03T16:13:24.419Z,60303.38
2018-09-03T16:15:53.378Z,60301.35
2018-09-03T16:18:21.756Z,60290.17
2018-09-03T16:20:50.043Z,60290.17
2018-09-03T16:23:18.199Z,60308.46
2018-09-03T16:25:46.443Z,60294.24
2018-09-03T16:28:14.686Z,60290.17
2018-09-03T16:30:42.867Z,60274.93
2018-09-03T16:33:11.071Z,60305.41
2018-09-03T16:35:39.992Z,60296.27
2018-09-03T16:38:08.204Z,60301.35
2018-09-03T16:40:36.416Z,60300.34
2018-09-03T16:43:04.667Z,60278.99
2018-09-03T16:45:32.932Z,60310.50
2018-09-03T16:48:01.189Z,60306.43
2018-09-03T16:50:29.420Z,60281.03
2018-09-03T16:52:57.703Z,60297.29
2018-09-03T16:55:25.948Z,60293.22
2018-09-03T16:57:54.194Z,60307.45
2018-09-03T17:00:22.410Z,60276.96
2018-09-03T17:02:50.606Z,60301.35
2018-09-03T17:05:19.583Z,60295.25
2018-09-03T17:07:47.956Z,60312.53
2018-09-03T17:10:17.809Z,60316.59
2018-09-03T17:12:46.071Z,60320.66
2018-09-03T17:15:14.260Z,60300.34
2018-09-03T17:17:42.524Z,60308.46
2018-09-03T17:20:10.910Z,60290.17
2018-09-03T17:22:39.158Z,60312.53
2018-09-03T17:25:07.371Z,60327.77
2018-09-03T17:27:37.000Z,60315.57
2018-09-03T17:30:05.707Z,60291.19
2018-09-03T17:32:34.843Z,60313.54
2018-09-03T17:35:03.111Z,60315.57
2018-09-03T17:37:31.317Z,60317.61
2018-09-03T17:39:59.520Z,60298.30
2018-09-03T17:42:27.695Z,60315.57
2018-09-03T17:44:55.903Z,60307.45
2018-09-03T17:47:24.087Z,60300.34
2018-09-03T17:49:52.347Z,60314.56
2018-09-03T17:52:20.487Z,60319.64
2018-09-03T17:54:50.912Z,60302.37
2018-09-03T17:57:19.240Z,60300.34
2018-09-03T17:59:47.552Z,60307.45
2018-09-03T18:02:16.790Z,60305.41
2018-09-03T18:04:45.854Z,60301.35
2018-09-03T18:07:15.221Z,60321.67
2018-09-03T18:09:43.400Z,60308.46
2018-09-03T18:12:13.686Z,60299.32
2018-09-03T18:14:41.903Z,60322.69
2018-09-03T18:17:10.532Z,60310.50
2018-09-03T18:19:39.539Z,60296.27
2018-09-03T18:22:08.764Z,60306.43
2018-09-03T18:24:37.656Z,60325.74
2018-09-03T18:27:06.803Z,60313.54
2018-09-03T18:29:35.346Z,60304.40
2018-09-03T18:32:04.567Z,60290.17
2018-09-03T18:34:32.792Z,60306.43
2018-09-03T18:37:01.132Z,60307.45
2018-09-03T18:39:29.303Z,60305.41
2018-09-03T18:41:58.050Z,60320.66
2018-09-03T18:44:26.727Z,60315.57
2018-09-03T18:46:54.987Z,60324.72
2018-09-03T18:49:23.306Z,60303.38
2018-09-03T18:51:51.611Z,60343.01
2018-09-03T18:54:19.782Z,60330.82
2018-09-03T18:56:48.041Z,60307.45
2018-09-03T18:59:16.256Z,60323.71
2018-09-03T19:01:44.511Z,60325.74
2018-09-03T19:04:12.729Z,60332.85
2018-09-03T19:06:41.027Z,60333.87
2018-09-03T19:09:11.018Z,60342.00
2018-09-03T19:11:39.487Z,60321.67
2018-09-03T19:14:07.847Z,60322.69
2018-09-03T19:16:36.051Z,60318.62
2018-09-03T19:19:04.835Z,60319.64
2018-09-03T19:21:33.240Z,60332.85
2018-09-03T19:24:01.490Z,60325.74
2018-09-03T19:26:29.714Z,60344.03
2018-09-03T19:28:57.920Z,60312.53
2018-09-03T19:31:26.159Z,60326.75
2018-09-03T19:33:54.372Z,60322.69
2018-09-03T19:36:22.636Z,60342.00
2018-09-03T19:38:50.935Z,60334.88
2018-09-03T19:41:19.140Z,60333.87
2018-09-03T19:43:47.367Z,60328.79
2018-09-03T19:46:15.768Z,60314.56
2018-09-03T19:48:43.978Z,60336.91
2018-09-03T19:51:12.161Z,60327.77
2018-09-03T19:53:40.377Z,60329.80
2018-09-03T19:56:08.603Z,60323.71
2018-09-03T19:58:36.847Z,60331.84
2018-09-03T20:01:05.872Z,60328.79
2018-09-03T20:03:34.133Z,60339.96
2018-09-03T20:06:02.754Z,60334.88
2018-09-03T20:08:31.201Z,60322.69
2018-09-03T20:10:59.466Z,60330.82
2018-09-03T20:13:27.756Z,60322.69
2018-09-03T20:15:55.931Z,60338.95
2018-09-03T20:18:24.132Z,60329.80
2018-09-03T20:20:52.318Z,60313.54
2018-09-03T20:23:20.546Z,60322.69
2018-09-03T20:25:48.677Z,60322.69
2018-09-03T20:28:16.900Z,60310.50
2018-09-03T20:30:45.179Z,60343.01
2018-09-03T20:33:13.280Z,60328.79
2018-09-03T20:35:41.484Z,60326.75
2018-09-03T20:38:09.669Z,60326.75
2018-09-03T20:40:37.868Z,60326.75
2018-09-03T20:43:06.084Z,60323.71
2018-09-03T20:45:34.260Z,60340.98
2018-09-03T20:48:02.453Z,60339.96
2018-09-03T20:50:30.635Z,60334.88
2018-09-03T20:52:58.801Z,60358.25
2018-09-03T20:55:26.997Z,60335.90
2018-09-03T20:57:55.246Z,60345.04
2018-09-03T21:00:23.432Z,60332.85
2018-09-03T21:02:51.622Z,60368.42
2018-09-03T21:05:19.814Z,60340.98
2018-09-03T21:07:47.983Z,60353.18
2018-09-03T21:10:16.167Z,60332.85
2018-09-03T21:12:44.357Z,60324.72
2018-09-03T21:15:12.540Z,60342.00
2018-09-03T21:17:40.718Z,60350.12
2018-09-03T21:20:08.895Z,60355.21
2018-09-03T21:22:37.076Z,60354.19
2018-09-03T21:25:05.271Z,60337.93
2018-09-03T21:27:33.447Z,60323.71
2018-09-03T21:30:01.624Z,60337.93
2018-09-03T21:32:29.814Z,60355.21
2018-09-03T21:34:58.003Z,60349.11
2018-09-03T21:37:26.214Z,60363.34
2018-09-03T21:39:54.466Z,60346.06
2018-09-03T21:42:22.665Z,60355.21
2018-09-03T21:44:50.852Z,60336.91
2018-09-03T21:47:19.120Z,60338.95
2018-09-03T21:49:47.298Z,60344.03
2018-09-03T21:52:15.542Z,60328.79
2018-09-03T21:54:43.728Z,60358.25
2018-09-03T21:57:11.935Z,60345.04
2018-09-03T21:59:40.132Z,60348.09
2018-09-03T22:02:10.215Z,60358.25
2018-09-03T22:04:39.945Z,60337.93
2018-09-03T22:07:08.135Z,60350.12
2018-09-03T22:09:36.328Z,60350.12
2018-09-03T22:12:04.535Z,60320.66
2018-09-03T22:14:32.751Z,60340.98
2018-09-03T22:17:00.939Z,60346.06
2018-09-03T22:19:29.126Z,60353.18
2018-09-03T22:21:57.326Z,60361.30
2018-09-03T22:24:25.588Z,60356.22
2018-09-03T22:26:53.807Z,60353.18
2018-09-03T22:29:22.002Z,60368.42
2018-09-03T22:31:50.216Z,60361.30
2018-09-03T22:34:18.396Z,60358.25
2018-09-03T22:36:46.575Z,60350.12
2018-09-03T22:39:14.763Z,60345.04
2018-09-03T22:41:42.952Z,60340.98
2018-09-03T22:44:11.131Z,60349.11
2018-09-03T22:46:39.316Z,60323.71
2018-09-03T22:49:07.735Z,60334.88
2018-09-03T22:51:35.961Z,60361.30
2018-09-03T22:54:04.141Z,60369.43
2018-09-03T22:56:32.362Z,60353.18
2018-09-03T22:59:00.544Z,60361.30
2018-09-03T23:01:28.719Z,60352.16
2018-09-03T23:03:56.891Z,60362.32
2018-09-03T23:06:25.088Z,60354.19
2018-09-03T23:08:53.263Z,60363.34
2018-09-03T23:11:21.579Z,60346.06
2018-09-03T23:13:49.640Z,60369.43
2018-09-03T23:16:17.823Z,60350.12
2018-09-03T23:18:46.001Z,60366.39
2018-09-03T23:21:14.171Z,60354.19
2018-09-03T23:23:42.346Z,60342.00
2018-09-03T23:26:10.532Z,60375.53
2018-09-03T23:28:38.733Z,60362.32
2018-09-03T23:31:06.903Z,60371.46
2018-09-03T23:33:35.091Z,60355.21
2018-09-03T23:36:03.419Z,60354.19
2018-09-03T23:38:31.611Z,60364.35
2018-09-03T23:40:59.802Z,60353.18
2018-09-03T23:43:27.983Z,60359.27
2018-09-03T23:45:56.172Z,60353.18
2018-09-03T23:48:24.343Z,60360.29
2018-09-03T23:50:52.541Z,60369.43
2018-09-03T23:53:20.729Z,60359.27
2018-09-03T23:55:48.911Z,60375.53
2018-09-03T23:58:17.114Z,60347.08
